sensor_id;sensor_type;location;lat;lon;timestamp;pressure;altitude;pressure_sealevel;temperature;humidity
64644;BME280;51056;50.330;7.914;2024-02-26T00:01:58;98873.91;;;5.82;92.12
64644;BME280;51056;50.330;7.914;2024-02-26T00:05:01;98862.75;;;5.66;93.83
64644;BME280;51056;50.330;7.914;2024-02-26T00:08:04;98861.75;;;5.69;94.19
64644;BME280;51056;50.330;7.914;2024-02-26T00:11:07;98859.28;;;5.81;93.52
64644;BME280;51056;50.330;7.914;2024-02-26T00:14:10;98853.16;;;5.68;94.95
64644;BME280;51056;50.330;7.914;2024-02-26T00:17:14;98849.97;;;5.63;95.83
64644;BME280;51056;50.330;7.914;2024-02-26T00:20:17;98842.59;;;5.71;96.36
64644;BME280;51056;50.330;7.914;2024-02-26T00:23:20;98839.81;;;5.74;95.32
64644;BME280;51056;50.330;7.914;2024-02-26T00:26:22;98837.22;;;5.74;95.61
64644;BME280;51056;50.330;7.914;2024-02-26T00:29:25;98826.53;;;5.65;96.32
64644;BME280;51056;50.330;7.914;2024-02-26T00:32:29;98825.34;;;5.70;96.38
64644;BME280;51056;50.330;7.914;2024-02-26T00:35:32;98817.31;;;5.75;96.61
64644;BME280;51056;50.330;7.914;2024-02-26T00:38:35;98813.41;;;5.82;96.22
64644;BME280;51056;50.330;7.914;2024-02-26T00:41:39;98796.28;;;5.65;96.94
64644;BME280;51056;50.330;7.914;2024-02-26T00:44:42;98796.75;;;5.72;97.46
64644;BME280;51056;50.330;7.914;2024-02-26T00:47:45;98796.63;;;5.59;97.88
64644;BME280;51056;50.330;7.914;2024-02-26T00:50:50;98800.16;;;5.72;98.10
64644;BME280;51056;50.330;7.914;2024-02-26T00:53:54;98795.53;;;5.77;97.63
64644;BME280;51056;50.330;7.914;2024-02-26T00:56:56;98799.06;;;5.91;97.05
64644;BME280;51056;50.330;7.914;2024-02-26T01:00:02;98793.50;;;5.82;97.16
64644;BME280;51056;50.330;7.914;2024-02-26T01:03:05;98799.97;;;5.75;98.34
64644;BME280;51056;50.330;7.914;2024-02-26T01:06:08;98803.59;;;5.73;97.72
64644;BME280;51056;50.330;7.914;2024-02-26T01:09:12;98796.44;;;5.76;97.81
64644;BME280;51056;50.330;7.914;2024-02-26T01:12:15;98798.69;;;5.82;97.30
64644;BME280;51056;50.330;7.914;2024-02-26T01:15:19;98802.75;;;5.87;97.05
64644;BME280;51056;50.330;7.914;2024-02-26T01:18:25;98807.75;;;5.90;95.84
64644;BME280;51056;50.330;7.914;2024-02-26T01:21:27;98814.53;;;5.92;95.01
64644;BME280;51056;50.330;7.914;2024-02-26T01:24:32;98812.22;;;5.88;95.73
64644;BME280;51056;50.330;7.914;2024-02-26T01:27:35;98813.41;;;5.82;93.21
64644;BME280;51056;50.330;7.914;2024-02-26T01:30:38;98828.69;;;5.87;93.63
64644;BME280;51056;50.330;7.914;2024-02-26T01:33:41;98819.78;;;5.76;93.97
64644;BME280;51056;50.330;7.914;2024-02-26T01:36:44;98803.66;;;5.57;93.53
64644;BME280;51056;50.330;7.914;2024-02-26T01:39:47;98810.69;;;5.55;95.40
64644;BME280;51056;50.330;7.914;2024-02-26T01:42:50;98804.69;;;5.83;94.77
64644;BME280;51056;50.330;7.914;2024-02-26T01:45:54;98812.22;;;5.88;93.08
64644;BME280;51056;50.330;7.914;2024-02-26T01:48:58;98802.78;;;6.01;93.28
64644;BME280;51056;50.330;7.914;2024-02-26T01:52:00;98803.16;;;5.95;93.57
64644;BME280;51056;50.330;7.914;2024-02-26T01:55:04;98797.41;;;6.04;92.91
64644;BME280;51056;50.330;7.914;2024-02-26T01:58:07;98793.72;;;5.94;93.98
64644;BME280;51056;50.330;7.914;2024-02-26T02:01:12;98785.16;;;6.06;93.83
64644;BME280;51056;50.330;7.914;2024-02-26T02:04:15;98783.31;;;6.08;93.82
64644;BME280;51056;50.330;7.914;2024-02-26T02:07:18;98772.03;;;5.95;94.05
64644;BME280;51056;50.330;7.914;2024-02-26T02:10:22;98800.47;;;5.96;94.83
64644;BME280;51056;50.330;7.914;2024-02-26T02:13:28;98799.88;;;5.77;95.38
64644;BME280;51056;50.330;7.914;2024-02-26T02:16:31;98815.63;;;5.88;93.93
64644;BME280;51056;50.330;7.914;2024-02-26T02:19:34;98808.16;;;5.98;93.51
64644;BME280;51056;50.330;7.914;2024-02-26T02:22:37;98822.06;;;5.97;93.17
64644;BME280;51056;50.330;7.914;2024-02-26T02:25:40;98811.50;;;6.14;90.19
64644;BME280;51056;50.330;7.914;2024-02-26T02:28:43;98813.06;;;6.02;92.71
64644;BME280;51056;50.330;7.914;2024-02-26T02:31:47;98802.78;;;6.01;93.54
64644;BME280;51056;50.330;7.914;2024-02-26T02:34:50;98796.53;;;5.89;94.58
64644;BME280;51056;50.330;7.914;2024-02-26T02:37:53;98792.19;;;5.90;94.78
64644;BME280;51056;50.330;7.914;2024-02-26T02:40:56;98787.03;;;6.04;93.31
64644;BME280;51056;50.330;7.914;2024-02-26T02:43:59;98789.16;;;6.12;91.46
64644;BME280;51056;50.330;7.914;2024-02-26T02:47:02;98806.31;;;6.14;89.66
64644;BME280;51056;50.330;7.914;2024-02-26T02:50:05;98817.25;;;6.19;88.81
64644;BME280;51056;50.330;7.914;2024-02-26T02:53:08;98818.00;;;6.07;89.01
64644;BME280;51056;50.330;7.914;2024-02-26T02:56:12;98817.44;;;6.16;87.38
64644;BME280;51056;50.330;7.914;2024-02-26T02:59:15;98825.75;;;6.21;88.95
64644;BME280;51056;50.330;7.914;2024-02-26T03:02:18;98823.06;;;6.23;88.57
64644;BME280;51056;50.330;7.914;2024-02-26T03:05:21;98824.53;;;6.27;89.09
64644;BME280;51056;50.330;7.914;2024-02-26T03:08:25;98834.47;;;6.20;91.12
64644;BME280;51056;50.330;7.914;2024-02-26T03:11:28;98826.31;;;6.26;92.33
64644;BME280;51056;50.330;7.914;2024-02-26T03:14:31;98825.94;;;6.33;92.42
64644;BME280;51056;50.330;7.914;2024-02-26T03:17:34;98838.00;;;6.19;92.35
64644;BME280;51056;50.330;7.914;2024-02-26T03:20:37;98838.34;;;6.27;92.90
64644;BME280;51056;50.330;7.914;2024-02-26T03:23:40;98844.47;;;6.26;93.13
64644;BME280;51056;50.330;7.914;2024-02-26T03:26:43;98847.25;;;6.23;93.15
64644;BME280;51056;50.330;7.914;2024-02-26T03:29:46;98841.69;;;6.15;93.62
64644;BME280;51056;50.330;7.914;2024-02-26T03:32:50;98844.41;;;6.14;95.69
64644;BME280;51056;50.330;7.914;2024-02-26T03:35:53;98840.22;;;6.11;95.92
64644;BME280;51056;50.330;7.914;2024-02-26T03:38:56;98839.28;;;5.98;96.06
64644;BME280;51056;50.330;7.914;2024-02-26T03:41:59;98842.66;;;6.00;97.26
64644;BME280;51056;50.330;7.914;2024-02-26T03:45:02;98836.16;;;6.07;96.50
64644;BME280;51056;50.330;7.914;2024-02-26T03:48:06;98835.78;;;5.99;98.19
64644;BME280;51056;50.330;7.914;2024-02-26T03:51:09;98835.41;;;6.05;98.24
64644;BME280;51056;50.330;7.914;2024-02-26T03:54:13;98834.47;;;6.06;98.21
64644;BME280;51056;50.330;7.914;2024-02-26T03:57:16;98841.13;;;5.96;98.56
64644;BME280;51056;50.330;7.914;2024-02-26T04:00:20;98834.63;;;5.74;99.99
64644;BME280;51056;50.330;7.914;2024-02-26T04:03:23;98831.75;;;5.79;98.88
64644;BME280;51056;50.330;7.914;2024-02-26T04:06:25;98837.13;;;5.90;99.07
64644;BME280;51056;50.330;7.914;2024-02-26T04:09:30;98831.09;;;5.75;100.00
64644;BME280;51056;50.330;7.914;2024-02-26T04:12:33;98822.66;;;5.86;100.00
64644;BME280;51056;50.330;7.914;2024-02-26T04:15:36;98836.47;;;5.87;100.00
64644;BME280;51056;50.330;7.914;2024-02-26T04:18:39;98827.03;;;5.71;100.00
64644;BME280;51056;50.330;7.914;2024-02-26T04:21:42;98835.81;;;5.83;100.00
64644;BME280;51056;50.330;7.914;2024-02-26T04:24:46;98843.25;;;5.89;100.00
64644;BME280;51056;50.330;7.914;2024-02-26T04:27:48;98844.25;;;5.87;100.00
64644;BME280;51056;50.330;7.914;2024-02-26T04:30:51;98843.16;;;5.91;100.00
64644;BME280;51056;50.330;7.914;2024-02-26T04:33:55;98845.72;;;5.76;100.00
64644;BME280;51056;50.330;7.914;2024-02-26T04:36:57;98854.91;;;5.82;100.00
64644;BME280;51056;50.330;7.914;2024-02-26T04:40:00;98844.06;;;5.75;100.00
64644;BME280;51056;50.330;7.914;2024-02-26T04:43:04;98852.97;;;5.71;100.00
64644;BME280;51056;50.330;7.914;2024-02-26T04:46:07;98853.69;;;5.73;100.00
64644;BME280;51056;50.330;7.914;2024-02-26T04:49:11;98847.59;;;5.74;100.00
64644;BME280;51056;50.330;7.914;2024-02-26T04:52:14;98861.47;;;5.73;100.00
64644;BME280;51056;50.330;7.914;2024-02-26T04:55:17;98864.00;;;5.75;100.00
64644;BME280;51056;50.330;7.914;2024-02-26T04:58:21;98856.81;;;5.64;100.00
64644;BME280;51056;50.330;7.914;2024-02-26T05:01:23;98856.28;;;5.73;100.00
64644;BME280;51056;50.330;7.914;2024-02-26T05:04:27;98860.00;;;5.69;100.00
64644;BME280;51056;50.330;7.914;2024-02-26T05:07:30;98856.63;;;5.67;100.00
64644;BME280;51056;50.330;7.914;2024-02-26T05:10:33;98864.25;;;5.70;100.00
64644;BME280;51056;50.330;7.914;2024-02-26T05:13:36;98855.16;;;5.77;100.00
64644;BME280;51056;50.330;7.914;2024-02-26T05:16:39;98856.28;;;5.73;100.00
64644;BME280;51056;50.330;7.914;2024-02-26T05:19:42;98851.56;;;5.80;100.00
64644;BME280;51056;50.330;7.914;2024-02-26T05:22:45;98861.66;;;5.70;100.00
64644;BME280;51056;50.330;7.914;2024-02-26T05:25:48;98861.66;;;5.70;100.00
64644;BME280;51056;50.330;7.914;2024-02-26T05:28:52;98856.56;;;5.83;100.00
64644;BME280;51056;50.330;7.914;2024-02-26T05:31:54;98872.97;;;5.83;100.00
64644;BME280;51056;50.330;7.914;2024-02-26T05:34:57;98858.09;;;5.57;100.00
64644;BME280;51056;50.330;7.914;2024-02-26T05:38:00;98862.28;;;5.59;100.00
64644;BME280;51056;50.330;7.914;2024-02-26T05:41:04;98863.06;;;5.76;100.00
64644;BME280;51056;50.330;7.914;2024-02-26T05:44:08;98866.84;;;5.70;100.00
64644;BME280;51056;50.330;7.914;2024-02-26T05:47:15;98866.72;;;5.57;100.00
64644;BME280;51056;50.330;7.914;2024-02-26T05:50:22;98867.72;;;5.55;100.00
64644;BME280;51056;50.330;7.914;2024-02-26T05:53:26;98868.66;;;5.54;100.00
64644;BME280;51056;50.330;7.914;2024-02-26T05:56:30;98870.25;;;5.56;100.00
64644;BME280;51056;50.330;7.914;2024-02-26T05:59:32;98874.78;;;5.53;100.00
64644;BME280;51056;50.330;7.914;2024-02-26T06:02:36;98876.88;;;5.46;100.00
64644;BME280;51056;50.330;7.914;2024-02-26T06:05:39;98879.38;;;5.48;100.00
64644;BME280;51056;50.330;7.914;2024-02-26T06:08:45;98876.97;;;5.45;100.00
64644;BME280;51056;50.330;7.914;2024-02-26T06:11:48;98891.81;;;5.57;100.00
64644;BME280;51056;50.330;7.914;2024-02-26T06:14:51;98890.81;;;5.59;100.00
64644;BME280;51056;50.330;7.914;2024-02-26T06:17:54;98897.94;;;5.56;100.00
64644;BME280;51056;50.330;7.914;2024-02-26T06:20:57;98898.31;;;5.64;100.00
64644;BME280;51056;50.330;7.914;2024-02-26T06:24:00;98904.25;;;5.66;100.00
64644;BME280;51056;50.330;7.914;2024-02-26T06:27:07;98910.91;;;5.70;100.00
64644;BME280;51056;50.330;7.914;2024-02-26T06:31:00;98920.28;;;5.73;100.00
64644;BME280;51056;50.330;7.914;2024-02-26T06:34:04;98919.19;;;5.77;100.00
64644;BME280;51056;50.330;7.914;2024-02-26T06:37:10;98928.38;;;5.82;100.00
64644;BME280;51056;50.330;7.914;2024-02-26T06:40:13;98933.19;;;5.89;100.00
64644;BME280;51056;50.330;7.914;2024-02-26T06:43:16;98933.25;;;5.73;100.00
64644;BME280;51056;50.330;7.914;2024-02-26T06:46:19;98942.44;;;5.78;100.00
64644;BME280;51056;50.330;7.914;2024-02-26T06:49:21;98946.16;;;5.89;100.00
64644;BME280;51056;50.330;7.914;2024-02-26T06:52:24;98942.28;;;5.81;100.00
64644;BME280;51056;50.330;7.914;2024-02-26T06:55:28;98945.94;;;5.77;100.00
64644;BME280;51056;50.330;7.914;2024-02-26T06:58:31;98948.78;;;5.58;100.00
64644;BME280;51056;50.330;7.914;2024-02-26T07:01:34;98954.88;;;5.57;100.00
64644;BME280;51056;50.330;7.914;2024-02-26T07:04:37;98952.38;;;5.56;100.00
64644;BME280;51056;50.330;7.914;2024-02-26T07:07:40;98962.00;;;5.54;100.00
64644;BME280;51056;50.330;7.914;2024-02-26T07:10:44;98965.56;;;5.67;100.00
64644;BME280;51056;50.330;7.914;2024-02-26T07:13:47;98963.91;;;5.66;100.00
64644;BME280;51056;50.330;7.914;2024-02-26T07:16:50;98971.66;;;5.66;100.00
64644;BME280;51056;50.330;7.914;2024-02-26T07:19:53;98974.09;;;5.69;100.00
64644;BME280;51056;50.330;7.914;2024-02-26T07:22:59;98971.66;;;5.66;100.00
64644;BME280;51056;50.330;7.914;2024-02-26T07:26:02;98975.03;;;5.68;100.00
64644;BME280;51056;50.330;7.914;2024-02-26T07:29:06;98972.44;;;5.68;100.00
64644;BME280;51056;50.330;7.914;2024-02-26T07:32:08;98977.06;;;5.77;100.00
64644;BME280;51056;50.330;7.914;2024-02-26T07:35:12;98986.78;;;5.74;100.00
64644;BME280;51056;50.330;7.914;2024-02-26T07:38:15;98984.47;;;5.69;100.00
64644;BME280;51056;50.330;7.914;2024-02-26T07:41:18;98988.69;;;5.86;100.00
64644;BME280;51056;50.330;7.914;2024-02-26T07:44:21;98987.09;;;5.83;100.00
64644;BME280;51056;50.330;7.914;2024-02-26T07:47:24;98991.19;;;5.88;100.00
64644;BME280;51056;50.330;7.914;2024-02-26T07:50:27;98988.00;;;5.98;100.00
64644;BME280;51056;50.330;7.914;2024-02-26T07:53:30;98984.66;;;5.80;100.00
64644;BME280;51056;50.330;7.914;2024-02-26T07:56:33;98992.56;;;5.79;100.00
64644;BME280;51056;50.330;7.914;2024-02-26T07:59:36;98995.44;;;5.74;100.00
64644;BME280;51056;50.330;7.914;2024-02-26T08:02:39;98998.97;;;5.88;100.00
64644;BME280;51056;50.330;7.914;2024-02-26T08:05:42;99004.22;;;6.02;100.00
64644;BME280;51056;50.330;7.914;2024-02-26T08:08:45;99005.50;;;5.95;100.00
64644;BME280;51056;50.330;7.914;2024-02-26T08:11:48;99016.72;;;5.95;100.00
64644;BME280;51056;50.330;7.914;2024-02-26T08:14:51;99010.25;;;5.87;100.00
64644;BME280;51056;50.330;7.914;2024-02-26T08:17:54;99022.06;;;5.92;100.00
64644;BME280;51056;50.330;7.914;2024-02-26T08:20:57;99020.56;;;5.88;100.00
64644;BME280;51056;50.330;7.914;2024-02-26T08:24:00;99029.78;;;5.78;100.00
64644;BME280;51056;50.330;7.914;2024-02-26T08:27:03;99031.34;;;5.80;100.00
64644;BME280;51056;50.330;7.914;2024-02-26T08:30:06;99035.53;;;5.83;100.00
64644;BME280;51056;50.330;7.914;2024-02-26T08:33:10;99040.84;;;5.81;100.00
64644;BME280;51056;50.330;7.914;2024-02-26T08:36:13;99030.81;;;5.75;100.00
64644;BME280;51056;50.330;7.914;2024-02-26T08:39:17;99040.50;;;5.88;100.00
64644;BME280;51056;50.330;7.914;2024-02-26T08:42:20;99040.06;;;5.79;100.00
64644;BME280;51056;50.330;7.914;2024-02-26T08:45:23;99036.31;;;5.85;100.00
64644;BME280;51056;50.330;7.914;2024-02-26T08:48:27;99047.34;;;5.89;100.00
64644;BME280;51056;50.330;7.914;2024-02-26T08:51:30;99049.63;;;5.79;100.00
64644;BME280;51056;50.330;7.914;2024-02-26T08:54:33;99045.09;;;5.98;100.00
64644;BME280;51056;50.330;7.914;2024-02-26T08:57:36;99050.56;;;5.94;100.00
64644;BME280;51056;50.330;7.914;2024-02-26T09:00:41;99065.94;;;5.97;100.00
64644;BME280;51056;50.330;7.914;2024-02-26T09:03:44;99060.22;;;5.90;100.00
64644;BME280;51056;50.330;7.914;2024-02-26T09:06:48;99056.78;;;6.05;100.00
64644;BME280;51056;50.330;7.914;2024-02-26T09:09:51;99058.84;;;6.15;100.00
64644;BME280;51056;50.330;7.914;2024-02-26T09:12:54;99067.91;;;6.08;100.00
64644;BME280;51056;50.330;7.914;2024-02-26T09:15:58;99061.97;;;6.05;100.00
64644;BME280;51056;50.330;7.914;2024-02-26T09:19:02;99064.50;;;6.07;100.00
64644;BME280;51056;50.330;7.914;2024-02-26T09:22:05;99059.13;;;6.10;100.00
64644;BME280;51056;50.330;7.914;2024-02-26T09:25:08;99053.97;;;6.24;100.00
64644;BME280;51056;50.330;7.914;2024-02-26T09:28:12;99045.28;;;6.25;100.00
64644;BME280;51056;50.330;7.914;2024-02-26T09:31:17;99049.53;;;6.26;100.00
64644;BME280;51056;50.330;7.914;2024-02-26T09:34:20;99049.91;;;6.35;100.00
64644;BME280;51056;50.330;7.914;2024-02-26T09:37:23;99070.31;;;6.41;100.00
64644;BME280;51056;50.330;7.914;2024-02-26T09:40:26;99066.25;;;6.37;100.00
64644;BME280;51056;50.330;7.914;2024-02-26T09:43:36;99073.19;;;6.36;100.00
64644;BME280;51056;50.330;7.914;2024-02-26T09:48:04;99088.78;;;6.36;100.00
64644;BME280;51056;50.330;7.914;2024-02-26T09:51:58;99093.22;;;6.34;100.00
64644;BME280;51056;50.330;7.914;2024-02-26T09:55:02;99087.78;;;6.39;100.00
64644;BME280;51056;50.330;7.914;2024-02-26T09:58:06;99082.94;;;6.47;100.00
64644;BME280;51056;50.330;7.914;2024-02-26T10:01:13;99070.38;;;6.55;100.00
64644;BME280;51056;50.330;7.914;2024-02-26T10:04:18;99072.03;;;6.56;100.00
64644;BME280;51056;50.330;7.914;2024-02-26T10:07:22;99082.50;;;6.55;100.00
64644;BME280;51056;50.330;7.914;2024-02-26T10:10:25;99091.88;;;6.57;100.00
64644;BME280;51056;50.330;7.914;2024-02-26T10:13:30;99088.91;;;6.63;100.00
64644;BME280;51056;50.330;7.914;2024-02-26T10:16:32;99096.63;;;6.65;100.00
64644;BME280;51056;50.330;7.914;2024-02-26T10:19:37;99096.63;;;6.65;100.00
64644;BME280;51056;50.330;7.914;2024-02-26T10:22:41;99102.56;;;6.67;100.00
64644;BME280;51056;50.330;7.914;2024-02-26T10:25:52;99103.22;;;6.70;100.00
64644;BME280;51056;50.330;7.914;2024-02-26T10:28:55;99096.91;;;6.74;100.00
64644;BME280;51056;50.330;7.914;2024-02-26T10:32:02;99104.53;;;6.78;100.00
64644;BME280;51056;50.330;7.914;2024-02-26T10:35:08;99111.97;;;6.84;100.00
64644;BME280;51056;50.330;7.914;2024-02-26T10:38:10;99112.22;;;6.79;100.00
64644;BME280;51056;50.330;7.914;2024-02-26T10:41:13;99116.41;;;6.82;100.00
64644;BME280;51056;50.330;7.914;2024-02-26T10:44:19;99114.56;;;6.84;100.00
64644;BME280;51056;50.330;7.914;2024-02-26T10:47:22;99117.88;;;6.86;100.00
64644;BME280;51056;50.330;7.914;2024-02-26T10:50:26;99128.28;;;6.86;100.00
64644;BME280;51056;50.330;7.914;2024-02-26T10:53:29;99122.72;;;6.92;100.00
64644;BME280;51056;50.330;7.914;2024-02-26T10:56:34;99125.25;;;6.93;100.00
64644;BME280;51056;50.330;7.914;2024-02-26T10:59:38;99122.06;;;6.88;100.00
64644;BME280;51056;50.330;7.914;2024-02-26T11:02:42;99134.69;;;6.94;100.00
64644;BME280;51056;50.330;7.914;2024-02-26T11:05:47;99134.81;;;6.93;100.00
64644;BME280;51056;50.330;7.914;2024-02-26T11:08:50;99144.84;;;6.99;100.00
64644;BME280;51056;50.330;7.914;2024-02-26T11:11:54;99146.13;;;7.06;100.00
64644;BME280;51056;50.330;7.914;2024-02-26T11:14:57;99146.50;;;7.00;100.00
64644;BME280;51056;50.330;7.914;2024-02-26T11:18:01;99158.56;;;7.01;100.00
64644;BME280;51056;50.330;7.914;2024-02-26T11:21:04;99158.19;;;6.93;100.00
64644;BME280;51056;50.330;7.914;2024-02-26T11:24:09;99151.03;;;6.96;100.00
64644;BME280;51056;50.330;7.914;2024-02-26T11:27:14;99167.09;;;7.03;100.00
64644;BME280;51056;50.330;7.914;2024-02-26T11:30:20;99159.31;;;7.03;100.00
64644;BME280;51056;50.330;7.914;2024-02-26T11:33:24;99154.88;;;7.05;100.00
64644;BME280;51056;50.330;7.914;2024-02-26T11:36:28;99149.75;;;7.04;100.00
64644;BME280;51056;50.330;7.914;2024-02-26T11:39:31;99151.16;;;7.09;100.00
64644;BME280;51056;50.330;7.914;2024-02-26T11:42:47;99148.91;;;7.03;100.00
64644;BME280;51056;50.330;7.914;2024-02-26T11:45:50;99154.28;;;7.00;100.00
64644;BME280;51056;50.330;7.914;2024-02-26T11:48:56;99154.88;;;7.05;100.00
64644;BME280;51056;50.330;7.914;2024-02-26T11:52:00;99160.91;;;7.06;100.00
64644;BME280;51056;50.330;7.914;2024-02-26T11:55:03;99161.25;;;7.14;100.00
64644;BME280;51056;50.330;7.914;2024-02-26T11:58:06;99156.44;;;7.22;100.00
64644;BME280;51056;50.330;7.914;2024-02-26T12:04:31;99160.16;;;7.18;100.00
64644;BME280;51056;50.330;7.914;2024-02-26T12:07:34;99153.75;;;7.23;100.00
64644;BME280;51056;50.330;7.914;2024-02-26T12:10:39;99157.44;;;7.34;100.00
64644;BME280;51056;50.330;7.914;2024-02-26T12:13:42;99169.72;;;7.32;100.00
64644;BME280;51056;50.330;7.914;2024-02-26T12:16:46;99176.06;;;7.28;100.00
64644;BME280;51056;50.330;7.914;2024-02-26T12:19:49;99178.81;;;7.10;100.00
64644;BME280;51056;50.330;7.914;2024-02-26T12:22:53;99189.84;;;6.99;100.00
64644;BME280;51056;50.330;7.914;2024-02-26T12:26:01;99187.06;;;7.03;100.00
64644;BME280;51056;50.330;7.914;2024-02-26T12:29:04;99190.97;;;7.10;100.00
64644;BME280;51056;50.330;7.914;2024-02-26T12:32:08;99186.81;;;7.21;100.00
64644;BME280;51056;50.330;7.914;2024-02-26T12:35:11;99192.19;;;7.18;100.00
64644;BME280;51056;50.330;7.914;2024-02-26T12:38:15;99192.13;;;7.34;100.00
64644;BME280;51056;50.330;7.914;2024-02-26T12:41:18;99189.44;;;7.50;100.00
64644;BME280;51056;50.330;7.914;2024-02-26T12:44:24;99195.34;;;7.66;100.00
64644;BME280;51056;50.330;7.914;2024-02-26T12:47:28;99194.03;;;7.59;100.00
64644;BME280;51056;50.330;7.914;2024-02-26T12:50:31;99197.03;;;7.67;100.00
64644;BME280;51056;50.330;7.914;2024-02-26T12:53:35;99194.22;;;7.71;100.00
64644;BME280;51056;50.330;7.914;2024-02-26T12:56:38;99189.09;;;7.83;99.85
64644;BME280;51056;50.330;7.914;2024-02-26T12:59:41;99201.84;;;7.74;99.73
64644;BME280;51056;50.330;7.914;2024-02-26T13:02:45;99197.47;;;7.88;100.00
64644;BME280;51056;50.330;7.914;2024-02-26T13:05:48;99199.97;;;7.90;100.00
64644;BME280;51056;50.330;7.914;2024-02-26T13:08:56;99205.44;;;8.00;100.00
64644;BME280;51056;50.330;7.914;2024-02-26T13:12:03;99206.44;;;7.97;98.72
64644;BME280;51056;50.330;7.914;2024-02-26T13:15:06;99220.44;;;7.67;98.94
64644;BME280;51056;50.330;7.914;2024-02-26T13:18:11;99218.28;;;7.88;98.41
64644;BME280;51056;50.330;7.914;2024-02-26T13:21:15;99225.63;;;7.96;98.38
64644;BME280;51056;50.330;7.914;2024-02-26T13:24:19;99221.34;;;7.95;98.86
64644;BME280;51056;50.330;7.914;2024-02-26T13:27:22;99223.19;;;7.93;97.79
64644;BME280;51056;50.330;7.914;2024-02-26T13:30:26;99229.78;;;7.99;98.28
64644;BME280;51056;50.330;7.914;2024-02-26T13:33:30;99226.16;;;8.01;99.00
64644;BME280;51056;50.330;7.914;2024-02-26T13:36:33;99221.78;;;8.02;98.04
64644;BME280;51056;50.330;7.914;2024-02-26T13:39:37;99220.66;;;8.06;97.81
64644;BME280;51056;50.330;7.914;2024-02-26T13:42:41;99219.84;;;8.05;97.86
64644;BME280;51056;50.330;7.914;2024-02-26T13:45:45;99224.28;;;8.03;99.28
64644;BME280;51056;50.330;7.914;2024-02-26T13:48:49;99231.72;;;8.09;98.84
64644;BME280;51056;50.330;7.914;2024-02-26T13:51:52;99231.25;;;8.17;99.29
64644;BME280;51056;50.330;7.914;2024-02-26T13:54:56;99234.13;;;8.27;97.79
64644;BME280;51056;50.330;7.914;2024-02-26T13:57:59;99237.19;;;8.19;97.91
64644;BME280;51056;50.330;7.914;2024-02-26T14:01:05;99241.94;;;8.12;99.95
64644;BME280;51056;50.330;7.914;2024-02-26T14:04:08;99248.09;;;8.11;98.62
64644;BME280;51056;50.330;7.914;2024-02-26T14:07:12;99248.75;;;8.01;98.24
64644;BME280;51056;50.330;7.914;2024-02-26T14:10:15;99263.41;;;8.16;98.09
64644;BME280;51056;50.330;7.914;2024-02-26T14:13:18;99253.56;;;8.07;98.46
64644;BME280;51056;50.330;7.914;2024-02-26T14:16:21;99257.47;;;8.14;98.12
64644;BME280;51056;50.330;7.914;2024-02-26T14:19:25;99256.53;;;8.15;97.92
64644;BME280;51056;50.330;7.914;2024-02-26T14:22:33;99259.03;;;8.16;98.67
64644;BME280;51056;50.330;7.914;2024-02-26T14:25:36;99262.00;;;8.25;98.11
64644;BME280;51056;50.330;7.914;2024-02-26T14:28:41;99258.72;;;8.35;98.40
64644;BME280;51056;50.330;7.914;2024-02-26T14:31:44;99261.63;;;8.31;98.03
64644;BME280;51056;50.330;7.914;2024-02-26T14:34:55;99267.88;;;8.43;97.95
64644;BME280;51056;50.330;7.914;2024-02-26T14:37:59;99272.69;;;8.34;99.58
64644;BME280;51056;50.330;7.914;2024-02-26T14:41:07;99268.88;;;8.26;97.13
64644;BME280;51056;50.330;7.914;2024-02-26T14:44:14;99274.25;;;8.37;97.48
64644;BME280;51056;50.330;7.914;2024-02-26T14:47:19;99283.84;;;8.51;95.54
64644;BME280;51056;50.330;7.914;2024-02-26T14:50:23;99286.16;;;8.55;95.14
64644;BME280;51056;50.330;7.914;2024-02-26T14:53:26;99293.84;;;8.71;94.98
64644;BME280;51056;50.330;7.914;2024-02-26T14:56:32;99297.16;;;8.73;95.09
64644;BME280;51056;50.330;7.914;2024-02-26T14:59:36;99302.50;;;8.72;94.60
64644;BME280;51056;50.330;7.914;2024-02-26T15:02:59;99303.25;;;8.59;95.59
64644;BME280;51056;50.330;7.914;2024-02-26T15:06:02;99302.72;;;8.54;96.40
64644;BME280;51056;50.330;7.914;2024-02-26T15:09:06;99297.59;;;8.53;97.14
64644;BME280;51056;50.330;7.914;2024-02-26T15:12:09;99302.69;;;8.69;96.43
64644;BME280;51056;50.330;7.914;2024-02-26T15:15:13;99309.91;;;8.78;96.08
64644;BME280;51056;50.330;7.914;2024-02-26T15:18:16;99310.09;;;8.75;96.55
64644;BME280;51056;50.330;7.914;2024-02-26T15:21:19;99307.81;;;8.83;96.37
64644;BME280;51056;50.330;7.914;2024-02-26T15:24:22;99308.78;;;8.82;93.08
64644;BME280;51056;50.330;7.914;2024-02-26T15:27:26;99309.44;;;8.98;92.50
64644;BME280;51056;50.330;7.914;2024-02-26T15:30:29;99314.34;;;9.03;93.23
64644;BME280;51056;50.330;7.914;2024-02-26T15:33:32;99315.41;;;9.00;92.39
64644;BME280;51056;50.330;7.914;2024-02-26T15:36:35;99318.22;;;8.97;92.91
64644;BME280;51056;50.330;7.914;2024-02-26T15:39:38;99323.72;;;8.93;93.96
64644;BME280;51056;50.330;7.914;2024-02-26T15:42:41;99337.31;;;8.98;92.83
64644;BME280;51056;50.330;7.914;2024-02-26T15:45:45;99335.63;;;8.97;94.57
64644;BME280;51056;50.330;7.914;2024-02-26T15:48:48;99339.28;;;8.94;94.38
64644;BME280;51056;50.330;7.914;2024-02-26T15:51:50;99342.59;;;8.96;94.70
64644;BME280;51056;50.330;7.914;2024-02-26T15:54:54;99352.09;;;8.97;94.13
64644;BME280;51056;50.330;7.914;2024-02-26T15:57:57;99352.63;;;9.02;93.77
64644;BME280;51056;50.330;7.914;2024-02-26T16:01:01;99359.38;;;8.92;93.40
64644;BME280;51056;50.330;7.914;2024-02-26T16:07:46;99373.56;;;8.74;92.65
64644;BME280;51056;50.330;7.914;2024-02-26T16:10:56;99374.69;;;8.84;92.79
64644;BME280;51056;50.330;7.914;2024-02-26T16:14:06;99379.91;;;8.84;92.71
64644;BME280;51056;50.330;7.914;2024-02-26T16:17:25;99384.38;;;8.82;94.11
64644;BME280;51056;50.330;7.914;2024-02-26T16:20:30;99387.84;;;8.68;92.64
64644;BME280;51056;50.330;7.914;2024-02-26T16:23:36;99387.34;;;8.76;94.03
64644;BME280;51056;50.330;7.914;2024-02-26T16:26:45;99404.28;;;8.83;93.55
64644;BME280;51056;50.330;7.914;2024-02-26T16:29:51;99412.97;;;8.69;95.48